MIA weather

Miami International Airport
Miami, Florida, United States

Public forecast

Using degrees Fahrenheit for public forecast. Weather courtesy of forecast.io.

Current aviation weather report (METAR) for Miami International Airport

Retrieved 2020/01/23 09:53 UTC (43 minutes ago):

KMIA 230953Z 32005KT 3SM -RA BR OVC004 14/13 A3002 RMK AO2 RAB44 SLP164 VIS SW-NW 1 1/2 P0000 T01440128

Aviation forecast (TAF) for Miami International Airport

Retrieved 2020/01/23 06:24 UTC (4 hours ago):

TAF KMIA 230523Z 2306/2412 31007KT P6SM VCSH SCT005 BKN050 TEMPO 2306/2310 5SM -RA BKN005 OVC030 FM231500 10011KT P6SM SCT035 BKN050 FM240000 10005KT P6SM SCT035 SCT050